createdAt,value
2019-06-20T00:02:20.072Z,9.25
2019-06-20T00:04:49.859Z,8.63
2019-06-20T00:07:19.652Z,8.73
2019-06-20T00:09:52.369Z,8.78
2019-06-20T00:12:20.911Z,8.33
2019-06-20T00:14:50.668Z,8.75
2019-06-20T00:17:20.463Z,8.83
2019-06-20T00:19:50.224Z,9.45
2019-06-20T00:22:20.054Z,8.60
2019-06-20T00:24:49.881Z,9.13
2019-06-20T00:27:19.644Z,9.15
2019-06-20T00:29:49.444Z,10.15
2019-06-20T00:32:19.214Z,11.85
2019-06-20T00:34:49.014Z,12.30
2019-06-20T00:37:18.801Z,10.75
2019-06-20T00:39:48.583Z,11.08
2019-06-20T00:42:18.393Z,10.68
2019-06-20T00:44:48.130Z,10.90
2019-06-20T00:47:17.915Z,10.65
2019-06-20T00:49:47.728Z,10.93
2019-06-20T00:52:17.480Z,10.63
2019-06-20T00:54:47.266Z,11.85
2019-06-20T00:57:17.021Z,10.70
2019-06-20T00:59:46.835Z,9.93
2019-06-20T01:02:16.597Z,10.88
2019-06-20T01:04:46.409Z,10.60
2019-06-20T01:07:16.202Z,11.08
2019-06-20T01:09:45.965Z,10.30
2019-06-20T01:12:15.769Z,10.30
2019-06-20T01:14:45.579Z,9.93
2019-06-20T01:17:15.377Z,22.62
2019-06-20T01:19:45.175Z,10.30
2019-06-20T01:22:14.936Z,11.65
2019-06-20T01:24:44.857Z,10.82
2019-06-20T01:27:14.621Z,10.35
2019-06-20T01:29:44.851Z,10.30
2019-06-20T01:32:14.645Z,10.13
2019-06-20T01:34:44.886Z,9.45
2019-06-20T01:37:14.683Z,8.50
2019-06-20T01:39:44.852Z,9.23
2019-06-20T01:42:14.803Z,8.90
2019-06-20T01:44:44.592Z,8.85
2019-06-20T01:47:14.806Z,8.55
2019-06-20T01:49:44.787Z,8.33
2019-06-20T01:52:14.541Z,8.85
2019-06-20T01:54:45.178Z,8.35
2019-06-20T01:57:14.925Z,9.28
2019-06-20T01:59:44.925Z,8.45
2019-06-20T02:02:14.682Z,7.95
2019-06-20T02:04:44.780Z,9.18
2019-06-20T02:07:14.572Z,9.50
2019-06-20T02:09:44.864Z,8.78
2019-06-20T02:12:14.830Z,8.43
2019-06-20T02:14:44.619Z,8.68
2019-06-20T02:17:14.857Z,8.65
2019-06-20T02:19:45.807Z,9.28
2019-06-20T02:22:15.598Z,10.28
2019-06-20T02:24:45.396Z,9.38
2019-06-20T02:27:15.179Z,9.70
2019-06-20T02:29:44.984Z,10.70
2019-06-20T02:32:14.803Z,10.75
2019-06-20T02:34:44.829Z,10.20
2019-06-20T02:37:14.596Z,10.23
2019-06-20T02:39:44.861Z,19.55
2019-06-20T02:42:14.652Z,16.55
2019-06-20T02:44:44.825Z,11.15
2019-06-20T02:47:14.617Z,10.50
2019-06-20T02:49:44.815Z,10.08
2019-06-20T02:52:14.879Z,9.48
2019-06-20T02:54:44.968Z,10.35
2019-06-20T02:57:14.740Z,10.85
2019-06-20T02:59:44.794Z,10.65
2019-06-20T03:02:14.583Z,10.03
2019-06-20T03:04:45.712Z,9.90
2019-06-20T03:07:15.580Z,10.00
2019-06-20T03:09:45.352Z,10.85
2019-06-20T03:12:16.185Z,10.50
2019-06-20T03:14:46.054Z,10.53
2019-06-20T03:17:15.849Z,10.15
2019-06-20T03:19:45.640Z,9.55
2019-06-20T03:22:15.434Z,7.58
2019-06-20T03:24:45.234Z,8.18
2019-06-20T03:27:15.002Z,8.43
2019-06-20T03:29:44.879Z,8.30
2019-06-20T03:32:14.671Z,8.58
2019-06-20T03:34:44.988Z,8.23
2019-06-20T03:37:14.900Z,8.45
2019-06-20T03:39:44.832Z,8.38
2019-06-20T03:42:14.616Z,8.95
2019-06-20T03:45:01.005Z,8.83
2019-06-20T03:47:16.386Z,8.35
2019-06-20T03:49:46.173Z,8.80
2019-06-20T03:52:15.926Z,8.33
2019-06-20T03:54:45.740Z,8.20
2019-06-20T03:57:15.521Z,8.10
2019-06-20T03:59:45.557Z,8.60
2019-06-20T04:02:15.410Z,9.40
2019-06-20T04:04:45.168Z,8.70
2019-06-20T04:07:14.957Z,8.28
2019-06-20T04:09:44.739Z,7.83
2019-06-20T04:12:14.883Z,8.05
2019-06-20T04:14:44.755Z,9.15
2019-06-20T04:17:14.911Z,8.60
2019-06-20T04:19:44.692Z,8.40
2019-06-20T04:22:14.905Z,8.65
2019-06-20T04:24:44.684Z,8.33
2019-06-20T04:27:14.802Z,8.20
2019-06-20T04:29:44.587Z,8.45
2019-06-20T04:32:14.944Z,7.70
2019-06-20T04:34:44.704Z,7.35
2019-06-20T04:37:14.968Z,7.70
2019-06-20T04:39:44.726Z,7.37
2019-06-20T04:42:18.388Z,7.40
2019-06-20T04:44:46.290Z,7.47
2019-06-20T04:47:16.819Z,7.37
2019-06-20T04:49:46.612Z,7.97
2019-06-20T04:52:16.373Z,7.53
2019-06-20T04:54:46.154Z,6.85
2019-06-20T04:57:15.960Z,7.10
2019-06-20T04:59:45.730Z,6.65
2019-06-20T05:02:17.159Z,6.28
2019-06-20T05:04:46.912Z,5.83
2019-06-20T05:07:20.053Z,5.67
2019-06-20T05:09:49.836Z,5.35
2019-06-20T05:12:19.598Z,5.65
2019-06-20T05:14:49.387Z,5.50
2019-06-20T05:17:19.148Z,5.55
2019-06-20T05:19:48.940Z,5.50
2019-06-20T05:22:18.723Z,5.30
2019-06-20T05:24:48.478Z,4.17
2019-06-20T05:27:18.343Z,4.37
2019-06-20T05:29:48.187Z,3.67
2019-06-20T05:32:17.999Z,4.15
2019-06-20T05:34:47.731Z,4.65
2019-06-20T05:37:17.530Z,4.50
2019-06-20T05:39:47.295Z,4.33
2019-06-20T05:42:17.047Z,4.00
2019-06-20T05:44:46.832Z,4.28
2019-06-20T05:47:16.628Z,5.10
2019-06-20T05:49:46.411Z,4.53
2019-06-20T05:52:16.203Z,5.00
2019-06-20T05:54:45.979Z,4.25
2019-06-20T05:57:15.764Z,4.25
2019-06-20T05:59:45.521Z,4.33
2019-06-20T06:02:15.311Z,4.50
2019-06-20T06:04:45.064Z,4.12
2019-06-20T06:07:15.087Z,4.03
2019-06-20T06:09:45.691Z,4.10
2019-06-20T06:12:15.494Z,4.55
2019-06-20T06:14:45.269Z,4.12
2019-06-20T06:17:15.023Z,4.35
2019-06-20T06:19:44.919Z,4.15
2019-06-20T06:22:14.668Z,3.98
2019-06-20T06:24:44.922Z,3.98
2019-06-20T06:27:14.700Z,4.12
2019-06-20T06:29:44.971Z,4.83
2019-06-20T06:32:14.995Z,4.20
2019-06-20T06:34:44.806Z,4.12
2019-06-20T06:37:14.979Z,4.03
2019-06-20T06:39:44.736Z,4.17
2019-06-20T06:42:14.925Z,4.25
2019-06-20T06:44:44.710Z,4.22
2019-06-20T06:47:14.913Z,5.15
2019-06-20T06:49:44.699Z,4.20
2019-06-20T06:52:15.159Z,3.77
2019-06-20T06:54:44.955Z,4.35
2019-06-20T06:57:15.094Z,4.40
2019-06-20T06:59:44.848Z,4.58
2019-06-20T07:02:15.192Z,4.85
2019-06-20T07:04:44.941Z,5.08
2019-06-20T07:07:15.085Z,4.10
2019-06-20T07:09:44.837Z,4.05
2019-06-20T07:12:15.527Z,3.70
2019-06-20T07:14:45.272Z,4.10
2019-06-20T07:17:15.116Z,3.90
2019-06-20T07:19:44.905Z,6.90
2019-06-20T07:22:15.216Z,3.80
2019-06-20T07:24:45.012Z,4.47
2019-06-20T07:27:15.130Z,5.08
2019-06-20T07:29:44.942Z,3.80
2019-06-20T07:32:15.155Z,3.40
2019-06-20T07:34:44.903Z,4.03
2019-06-20T07:37:15.152Z,4.67
2019-06-20T07:39:44.911Z,5.08
2019-06-20T07:42:15.166Z,3.83
2019-06-20T07:44:44.944Z,4.00
2019-06-20T07:47:17.857Z,4.22
2019-06-20T07:49:46.624Z,5.28
2019-06-20T07:52:16.407Z,4.12
2019-06-20T07:54:46.188Z,3.75
2019-06-20T07:57:15.973Z,3.80
2019-06-20T07:59:45.776Z,3.27
2019-06-20T08:02:15.555Z,3.70
2019-06-20T08:04:45.304Z,4.15
2019-06-20T08:07:15.148Z,3.25
2019-06-20T08:09:45.577Z,3.40
2019-06-20T08:12:15.469Z,3.92
2019-06-20T08:14:45.250Z,3.20
2019-06-20T08:17:15.148Z,3.12
2019-06-20T08:19:45.175Z,3.22
2019-06-20T08:22:14.924Z,4.05
2019-06-20T08:24:45.259Z,3.12
2019-06-20T08:27:15.114Z,2.87
2019-06-20T08:29:45.183Z,3.37
2019-06-20T08:32:14.930Z,3.00
2019-06-20T08:34:45.213Z,3.40
2019-06-20T08:37:14.983Z,3.37
2019-06-20T08:39:45.179Z,3.85
2019-06-20T08:42:15.154Z,2.95
2019-06-20T08:44:44.905Z,3.60
2019-06-20T08:47:15.174Z,2.72
2019-06-20T08:49:44.915Z,3.33
2019-06-20T08:52:15.153Z,3.37
2019-06-20T08:54:44.939Z,2.80
2019-06-20T08:57:15.124Z,2.92
2019-06-20T08:59:44.909Z,3.35
2019-06-20T09:02:15.139Z,2.70
2019-06-20T09:04:44.920Z,4.05
2019-06-20T09:07:15.138Z,2.95
2019-06-20T09:09:44.939Z,2.70
2019-06-20T09:12:15.138Z,2.42
2019-06-20T09:14:44.920Z,2.17
2019-06-20T09:17:15.169Z,3.37
2019-06-20T09:19:44.921Z,2.92
2019-06-20T09:22:15.231Z,2.80
2019-06-20T09:24:45.001Z,3.30
2019-06-20T09:27:15.176Z,2.33
2019-06-20T09:29:44.928Z,6.42
2019-06-20T09:32:15.181Z,2.30
2019-06-20T09:34:44.975Z,2.15
2019-06-20T09:37:15.118Z,2.58
2019-06-20T09:39:44.907Z,3.02
2019-06-20T09:42:15.212Z,3.00
2019-06-20T09:44:44.994Z,2.55
2019-06-20T09:47:15.197Z,2.50
2019-06-20T09:49:49.033Z,2.47
2019-06-20T09:52:16.450Z,2.72
2019-06-20T09:54:48.508Z,2.72
2019-06-20T09:57:17.692Z,2.92
2019-06-20T09:59:59.091Z,3.12
2019-06-20T10:02:18.933Z,3.92
2019-06-20T10:04:49.514Z,3.22
2019-06-20T10:07:20.410Z,3.37
2019-06-20T10:09:50.192Z,2.92
2019-06-20T10:12:19.971Z,3.02
2019-06-20T10:14:49.860Z,4.80
2019-06-20T10:17:19.616Z,3.10
2019-06-20T10:19:49.889Z,3.42
2019-06-20T10:22:19.642Z,2.65
2019-06-20T10:24:49.422Z,2.85
2019-06-20T10:27:19.170Z,3.10
2019-06-20T10:29:49.023Z,2.70
2019-06-20T10:32:18.786Z,2.75
2019-06-20T10:34:48.584Z,2.90
2019-06-20T10:37:18.377Z,3.10
2019-06-20T10:39:48.114Z,3.05
2019-06-20T10:42:17.904Z,3.35
2019-06-20T10:44:47.726Z,2.98
2019-06-20T10:47:31.483Z,3.62
2019-06-20T10:49:50.365Z,3.02
2019-06-20T10:52:20.272Z,3.10
2019-06-20T10:54:51.408Z,2.80
2019-06-20T10:57:21.207Z,2.75
2019-06-20T10:59:51.002Z,3.00
2019-06-20T11:02:20.772Z,4.90
2019-06-20T11:04:50.550Z,2.90
2019-06-20T11:07:20.375Z,3.77
2019-06-20T11:09:50.158Z,2.80
2019-06-20T11:12:19.950Z,3.05
2019-06-20T11:14:49.693Z,2.30
2019-06-20T11:17:19.481Z,3.60
2019-06-20T11:19:49.271Z,3.05
2019-06-20T11:22:19.058Z,2.58
2019-06-20T11:24:48.809Z,2.83
2019-06-20T11:27:18.598Z,3.15
2019-06-20T11:29:48.546Z,2.70
2019-06-20T11:32:18.752Z,3.20
2019-06-20T11:34:49.417Z,2.85
2019-06-20T11:37:19.184Z,2.98
2019-06-20T11:39:51.266Z,2.75
2019-06-20T11:42:20.473Z,3.10
2019-06-20T11:44:50.278Z,3.20
2019-06-20T11:47:20.663Z,3.15
2019-06-20T11:49:50.503Z,2.92
2019-06-20T11:52:20.289Z,3.17
2019-06-20T11:54:50.081Z,3.35
2019-06-20T11:57:19.920Z,3.45
2019-06-20T11:59:49.665Z,4.25
2019-06-20T12:02:19.482Z,3.80
2019-06-20T12:04:49.230Z,4.12
2019-06-20T12:07:19.023Z,3.70
2019-06-20T12:09:49.191Z,3.80
2019-06-20T12:12:19.002Z,3.42
2019-06-20T12:14:48.789Z,3.35
2019-06-20T12:17:18.535Z,3.20
2019-06-20T12:19:48.805Z,3.72
2019-06-20T12:22:18.600Z,4.00
2019-06-20T12:24:48.917Z,3.58
2019-06-20T12:27:18.765Z,3.83
2019-06-20T12:29:49.380Z,4.05
2019-06-20T12:32:20.854Z,4.08
2019-06-20T12:34:50.791Z,4.67
2019-06-20T12:37:20.576Z,3.90
2019-06-20T12:39:50.358Z,4.20
2019-06-20T12:42:20.108Z,4.45
2019-06-20T12:44:50.850Z,4.28
2019-06-20T12:47:20.689Z,4.90
2019-06-20T12:49:50.744Z,6.97
2019-06-20T12:52:21.492Z,4.78
2019-06-20T12:54:51.252Z,5.90
2019-06-20T12:57:21.040Z,6.17
2019-06-20T12:59:50.829Z,4.37
2019-06-20T13:02:20.615Z,7.10
2019-06-20T13:04:50.598Z,5.17
2019-06-20T13:07:20.438Z,4.10
2019-06-20T13:09:50.228Z,21.50
2019-06-20T13:12:19.976Z,4.10
2019-06-20T13:14:49.765Z,3.50
2019-06-20T13:17:19.526Z,4.35
2019-06-20T13:19:49.319Z,12.28
2019-06-20T13:22:19.092Z,5.28
2019-06-20T13:24:49.529Z,3.58
2019-06-20T13:27:19.357Z,4.67
2019-06-20T13:29:49.451Z,5.65
2019-06-20T13:32:20.930Z,3.17
2019-06-20T13:34:52.450Z,5.47
2019-06-20T13:37:22.411Z,6.20
2019-06-20T13:39:52.168Z,3.55
2019-06-20T13:42:21.954Z,2.98
2019-06-20T13:44:51.712Z,3.00
2019-06-20T13:47:21.521Z,3.20
2019-06-20T13:49:51.254Z,2.62
2019-06-20T13:52:21.045Z,3.10
2019-06-20T13:55:02.544Z,3.10
2019-06-20T13:57:34.236Z,3.40
2019-06-20T14:00:06.279Z,2.70
2019-06-20T14:02:36.020Z,3.20
2019-06-20T14:05:06.639Z,2.90
2019-06-20T14:07:36.831Z,3.77
2019-06-20T14:10:07.621Z,3.02
2019-06-20T14:12:38.477Z,3.17
2019-06-20T14:15:08.734Z,3.30
2019-06-20T14:17:41.417Z,2.87
2019-06-20T14:20:11.529Z,3.50
2019-06-20T14:22:42.772Z,3.50
2019-06-20T14:25:12.847Z,3.80
2019-06-20T14:27:43.958Z,3.37
2019-06-20T14:30:14.663Z,2.65
2019-06-20T14:32:44.481Z,2.90
2019-06-20T14:35:16.405Z,2.83
2019-06-20T14:37:47.826Z,3.85
2019-06-20T14:40:18.042Z,2.75
2019-06-20T14:42:48.372Z,2.80
2019-06-20T14:45:18.656Z,2.77
2019-06-20T14:47:55.083Z,2.20
2019-06-20T14:50:25.590Z,3.10
2019-06-20T14:52:55.321Z,3.47
2019-06-20T14:55:25.119Z,4.10
2019-06-20T14:57:55.018Z,3.65
2019-06-20T15:00:25.544Z,3.72
2019-06-20T15:02:58.384Z,4.05
2019-06-20T15:05:27.171Z,5.28
2019-06-20T15:07:57.208Z,4.30
2019-06-20T15:10:27.165Z,4.28
2019-06-20T15:12:56.976Z,4.78
2019-06-20T15:15:26.839Z,4.78
2019-06-20T15:17:58.175Z,4.00
2019-06-20T15:20:28.112Z,4.87
2019-06-20T15:22:57.875Z,3.95
2019-06-20T15:25:27.688Z,4.62
2019-06-20T15:27:57.568Z,3.98
2019-06-20T15:30:27.408Z,3.95
2019-06-20T15:33:07.613Z,4.08
2019-06-20T15:35:28.682Z,3.80
2019-06-20T15:37:59.020Z,4.25
2019-06-20T15:40:29.898Z,3.58
2019-06-20T15:43:00.923Z,3.92
2019-06-20T15:45:30.943Z,4.17
2019-06-20T15:48:00.758Z,3.92
2019-06-20T15:50:30.700Z,2.90
2019-06-20T15:53:01.298Z,3.33
2019-06-20T15:55:31.270Z,3.47
2019-06-20T15:58:01.014Z,3.17
2019-06-20T16:00:30.880Z,2.92
2019-06-20T16:03:09.822Z,3.60
2019-06-20T16:05:35.077Z,3.60
2019-06-20T16:08:05.175Z,3.58
2019-06-20T16:10:34.955Z,4.55
2019-06-20T16:13:04.935Z,3.20
2019-06-20T16:15:34.725Z,3.90
2019-06-20T16:18:04.523Z,2.85
2019-06-20T16:20:34.266Z,3.25
2019-06-20T16:23:04.351Z,3.25
2019-06-20T16:25:34.098Z,3.27
2019-06-20T16:28:03.884Z,3.87
2019-06-20T16:30:33.894Z,20.95
2019-06-20T16:33:03.729Z,4.62
2019-06-20T16:35:33.520Z,5.05
2019-06-20T16:38:03.271Z,6.28
2019-06-20T16:40:39.059Z,12.82
2019-06-20T16:43:08.820Z,6.92
2019-06-20T16:45:38.599Z,9.88
2019-06-20T16:48:08.435Z,5.20
2019-06-20T16:50:38.285Z,3.55
2019-06-20T16:53:08.143Z,4.67
2019-06-20T16:55:37.892Z,4.65
2019-06-20T16:58:07.776Z,4.22
2019-06-20T17:00:37.879Z,3.90
2019-06-20T17:03:07.664Z,4.85
2019-06-20T17:05:37.464Z,4.70
2019-06-20T17:08:07.273Z,3.40
2019-06-20T17:10:37.070Z,4.60
2019-06-20T17:13:06.948Z,4.97
2019-06-20T17:15:36.727Z,3.15
2019-06-20T17:18:06.548Z,3.22
2019-06-20T17:20:36.350Z,4.70
2019-06-20T17:23:06.182Z,3.95
2019-06-20T17:25:36.060Z,3.62
2019-06-20T17:28:05.929Z,3.08
2019-06-20T17:30:35.811Z,3.55
2019-06-20T17:33:05.735Z,3.72
2019-06-20T17:35:35.497Z,3.10
2019-06-20T17:38:05.349Z,3.10
2019-06-20T17:40:35.263Z,3.20
2019-06-20T17:43:05.199Z,2.98
2019-06-20T17:45:34.946Z,3.33
2019-06-20T17:48:04.885Z,2.75
2019-06-20T17:50:34.648Z,2.95
2019-06-20T17:53:04.506Z,2.62
2019-06-20T17:55:34.312Z,2.92
2019-06-20T17:58:04.132Z,2.50
2019-06-20T18:00:34.486Z,2.12
2019-06-20T18:03:04.347Z,2.42
2019-06-20T18:05:34.191Z,2.75
2019-06-20T18:08:14.804Z,2.17
2019-06-20T18:10:35.516Z,2.52
2019-06-20T18:13:05.383Z,2.27
2019-06-20T18:15:35.246Z,2.12
2019-06-20T18:18:05.067Z,2.35
2019-06-20T18:20:34.813Z,2.77
2019-06-20T18:23:04.668Z,2.05
2019-06-20T18:25:34.433Z,1.92
2019-06-20T18:28:04.354Z,1.82
2019-06-20T18:30:39.679Z,2.22
2019-06-20T18:33:09.554Z,1.98
2019-06-20T18:35:39.587Z,2.05
2019-06-20T18:38:09.440Z,1.87
2019-06-20T18:40:39.264Z,2.25
2019-06-20T18:43:09.019Z,2.92
2019-06-20T18:45:38.816Z,3.83
2019-06-20T18:48:08.572Z,3.37
2019-06-20T18:50:38.361Z,4.55
2019-06-20T18:53:08.254Z,4.10
2019-06-20T18:55:38.031Z,4.80
2019-06-20T18:58:07.814Z,5.08
2019-06-20T19:00:37.643Z,4.60
2019-06-20T19:03:07.439Z,4.97
2019-06-20T19:05:37.202Z,4.03
2019-06-20T19:08:06.984Z,3.27
2019-06-20T19:10:36.739Z,3.50
2019-06-20T19:13:06.527Z,7.83
2019-06-20T19:15:36.327Z,4.10
2019-06-20T19:18:06.234Z,3.10
2019-06-20T19:20:36.014Z,3.67
2019-06-20T19:23:05.763Z,3.40
2019-06-20T19:25:35.557Z,3.35
2019-06-20T19:28:05.337Z,5.08
2019-06-20T19:30:53.428Z,3.70
2019-06-20T19:33:23.207Z,3.35
2019-06-20T19:35:52.967Z,3.45
2019-06-20T19:38:22.781Z,3.95
2019-06-20T19:40:52.606Z,3.75
2019-06-20T19:43:22.626Z,3.37
2019-06-20T19:45:52.400Z,3.90
2019-06-20T19:48:22.182Z,4.35
2019-06-20T19:50:51.982Z,4.70
2019-06-20T19:53:21.728Z,5.85
2019-06-20T19:55:51.532Z,4.85
2019-06-20T19:58:21.286Z,4.90
2019-06-20T20:00:51.094Z,6.03
2019-06-20T20:03:20.942Z,6.83
2019-06-20T20:05:50.792Z,5.60
2019-06-20T20:08:20.559Z,3.85
2019-06-20T20:10:50.661Z,7.58
2019-06-20T20:13:20.481Z,8.40
2019-06-20T20:15:50.248Z,6.80
2019-06-20T20:18:20.053Z,4.17
2019-06-20T20:20:49.961Z,5.53
2019-06-20T20:23:19.706Z,7.85
2019-06-20T20:25:49.563Z,8.90
2019-06-20T20:28:19.303Z,7.58
2019-06-20T20:30:49.094Z,8.93
2019-06-20T20:33:18.862Z,8.43
2019-06-20T20:35:48.686Z,7.15
2019-06-20T20:38:18.615Z,11.68
2019-06-20T20:40:48.424Z,7.28
2019-06-20T20:43:18.283Z,5.90
2019-06-20T20:45:48.658Z,5.95
2019-06-20T20:48:20.310Z,4.87
2019-06-20T20:50:50.661Z,6.58
2019-06-20T20:53:20.453Z,5.83
2019-06-20T20:55:50.211Z,5.50
2019-06-20T20:58:20.009Z,5.30
2019-06-20T21:00:58.451Z,5.65
2019-06-20T21:03:28.239Z,5.70
2019-06-20T21:05:58.223Z,5.83
2019-06-20T21:08:28.118Z,5.65
2019-06-20T21:10:57.931Z,5.03
2019-06-20T21:13:27.685Z,5.53
2019-06-20T21:15:57.502Z,5.72
2019-06-20T21:18:27.246Z,5.15
2019-06-20T21:20:57.031Z,5.90
2019-06-20T21:23:26.786Z,5.65
2019-06-20T21:25:56.593Z,5.70
2019-06-20T21:28:26.377Z,6.47
2019-06-20T21:30:56.133Z,6.75
2019-06-20T21:33:25.926Z,8.20
2019-06-20T21:36:08.057Z,7.47
2019-06-20T21:38:27.177Z,7.85
2019-06-20T21:40:56.963Z,7.40
2019-06-20T21:43:26.749Z,7.85
2019-06-20T21:45:56.636Z,7.17
2019-06-20T21:48:26.402Z,5.10
2019-06-20T21:50:56.193Z,5.00
2019-06-20T21:53:25.944Z,4.95
2019-06-20T21:55:55.734Z,5.08
2019-06-20T21:58:25.547Z,4.90
2019-06-20T22:00:58.823Z,4.65
2019-06-20T22:03:28.834Z,4.50
2019-06-20T22:05:58.620Z,4.47
2019-06-20T22:08:28.440Z,4.53
2019-06-20T22:10:58.254Z,5.17
2019-06-20T22:13:28.038Z,4.87
2019-06-20T22:15:57.791Z,4.75
2019-06-20T22:18:27.654Z,4.50
2019-06-20T22:20:57.447Z,4.33
2019-06-20T22:23:27.192Z,4.83
2019-06-20T22:25:57.000Z,5.00
2019-06-20T22:28:26.732Z,4.87
2019-06-20T22:30:56.848Z,4.10
2019-06-20T22:33:26.634Z,4.70
2019-06-20T22:35:56.404Z,4.58
2019-06-20T22:38:26.162Z,4.47
2019-06-20T22:40:55.917Z,4.50
2019-06-20T22:43:25.686Z,4.95
2019-06-20T22:45:55.472Z,5.00
2019-06-20T22:48:25.226Z,4.97
2019-06-20T22:50:55.007Z,4.78
2019-06-20T22:53:24.930Z,5.03
2019-06-20T22:55:54.711Z,4.83
2019-06-20T22:58:24.511Z,5.17
2019-06-20T23:00:54.264Z,5.58
2019-06-20T23:03:24.113Z,5.05
2019-06-20T23:05:53.965Z,5.72
2019-06-20T23:08:24.795Z,5.40
2019-06-20T23:10:54.592Z,5.42
2019-06-20T23:13:24.375Z,5.58
2019-06-20T23:15:54.176Z,5.53
2019-06-20T23:18:23.954Z,5.67
2019-06-20T23:21:04.086Z,5.33
2019-06-20T23:23:25.620Z,5.60
2019-06-20T23:25:57.162Z,6.05
2019-06-20T23:28:27.466Z,5.78
2019-06-20T23:30:57.640Z,5.87
2019-06-20T23:33:27.682Z,5.37
2019-06-20T23:35:57.462Z,6.10
2019-06-20T23:38:27.246Z,5.42
2019-06-20T23:40:57.037Z,6.05
2019-06-20T23:43:26.819Z,5.08
2019-06-20T23:45:56.569Z,6.00
2019-06-20T23:48:26.356Z,5.62
2019-06-20T23:50:56.126Z,6.03
2019-06-20T23:53:28.685Z,6.12
2019-06-20T23:55:58.515Z,6.03
2019-06-20T23:58:28.295Z,5.50
